CheckWX is a tool to help pilots better visualize weather data.  It is not intended as a substitute for an official pre-flight weather briefing.

14:18:14 UTC

SBCF METAR
Tancredo Neves International Airport
Belo Horizonte, Brazil
Current

18 mins ago

SBCF 151400Z 07007KT CAVOK 25/13 Q1023
Observed
Sep-15 @ 14:00 UTC
Wind
  • 070° at 7 KTS
Visibility
10,000+ meters
Flight Rules
VFR
Cloud Levels
  • Clear skies
Temperature
25°C / 77°F
Dewpoint
13°C / 55°F
Humidity
47%
Altimeter
30.21" Hg
Pressure
1022.92 hPa
Previous

1 hour ago

SBCF 151300Z 10006KT 9000 NSC 23/14 Q1023
Observed
Sep-15 @ 13:00 UTC
Wind
  • 100° at 6 KTS
Visibility
9,000 meters
Flight Rules
VFR
Cloud Levels
  • Clear skies
Temperature
23°C / 73°F
Dewpoint
14°C / 57°F
Humidity
57%
Altimeter
30.21" Hg
Pressure
1022.92 hPa
Previous

2 hours ago

SBCF 151200Z 11005KT 9000 NSC 22/14 Q1024
Observed
Sep-15 @ 12:00 UTC
Wind
  • 110° at 5 KTS
Visibility
9,000 meters
Flight Rules
VFR
Cloud Levels
  • Clear skies
Temperature
22°C / 72°F
Dewpoint
14°C / 57°F
Humidity
61%
Altimeter
30.24" Hg
Pressure
1023.92 hPa